Time;durP1;ratioP1;P1;durP2;ratioP2;P2;SDS_P1;SDS_P2;PMS_P1;PMS_P2;Temp;Humidity;BMP_temperature;BMP_pressure;BME280_temperature;BME280_humidity;BME280_pressure;Samples;Min_cycle;Max_cycle;Signal;HPM_P1;HPM_P2
2024/04/02 00:02:45;;;;;;;;;16.50;12.25;;;;;26.93;33.36;100130.52;245338;1183;88025;-75
2024/04/02 00:07:50;;;;;;;;;12.33;12.33;;;;;26.93;33.24;100121.13;245006;1183;89199;-75
2024/04/02 00:12:54;;;;;;;;;15.33;14.67;;;;;26.92;33.30;100126.66;245303;1180;87416;-75
2024/04/02 00:18:02;;;;;;;;;18.75;13.75;;;;;26.92;33.37;100129.67;245298;1183;88231;-74
2024/04/02 00:23:06;;;;;;;;;14.25;12.25;;;;;26.92;33.38;100124.73;245015;1183;89170;-75
2024/04/02 00:28:20;;;;;;;;;13.00;12.00;;;;;26.92;33.28;100118.21;245342;1184;87958;-75
2024/04/02 00:33:24;;;;;;;;;12.00;10.67;;;;;26.91;33.29;100112.77;245305;1183;88050;-75
2024/04/02 00:38:28;;;;;;;;;15.25;13.75;;;;;26.90;33.25;100106.14;245314;1179;89048;-75
2024/04/02 00:43:33;;;;;;;;;12.75;10.50;;;;;26.90;33.37;100101.08;245302;1180;88786;-75
2024/04/02 00:48:37;;;;;;;;;14.00;12.50;;;;;26.89;33.27;100092.41;244991;1183;88141;-75
2024/04/02 00:53:42;;;;;;;;;14.50;14.50;;;;;26.89;33.52;100088.27;244950;1186;88314;-75
2024/04/02 00:58:48;;;;;;;;;15.00;13.67;;;;;26.88;33.39;100080.20;245251;1180;87720;-75
2024/04/02 01:03:52;;;;;;;;;11.75;10.75;;;;;26.87;33.46;100076.85;244993;1183;88196;-74
2024/04/02 01:08:57;;;;;;;;;15.50;12.00;;;;;26.86;33.36;100071.36;245029;1186;88760;-75
2024/04/02 01:14:03;;;;;;;;;14.33;13.67;;;;;26.86;33.37;100070.92;244958;1183;87817;-74
2024/04/02 01:19:11;;;;;;;;;11.33;11.33;;;;;26.85;33.47;100071.41;244929;1192;87939;-74
2024/04/02 01:24:15;;;;;;;;;12.33;11.00;;;;;26.85;33.48;100066.91;244752;1186;87389;-75
2024/04/02 01:29:19;;;;;;;;;11.00;11.00;;;;;26.83;33.59;100063.05;244948;1185;89185;-75
2024/04/02 01:34:25;;;;;;;;;12.33;11.33;;;;;26.83;33.54;100060.52;244770;1186;88796;-75
2024/04/02 01:39:29;;;;;;;;;14.33;12.00;;;;;26.83;33.55;100055.70;244758;1185;88410;-75
2024/04/02 01:44:34;;;;;;;;;10.00;10.00;;;;;26.82;33.50;100048.73;244784;1183;89226;-75
2024/04/02 01:49:37;;;;;;;;;14.00;13.00;;;;;26.81;33.49;100038.96;244951;1185;88443;-74
2024/04/02 01:54:43;;;;;;;;;16.50;12.25;;;;;26.81;33.62;100032.43;244791;1179;88920;-75
2024/04/02 01:59:47;;;;;;;;;12.75;12.00;;;;;26.80;33.43;100025.95;244950;1179;88678;-75
2024/04/02 02:04:51;;;;;;;;;11.00;11.00;;;;;26.80;33.49;100021.06;244965;1185;89071;-75
2024/04/02 02:09:57;;;;;;;;;12.25;10.25;;;;;26.80;33.45;100010.81;244779;1193;89155;-75
2024/04/02 02:15:01;;;;;;;;;11.67;10.33;;;;;26.80;33.69;100006.51;244935;1186;88379;-75
2024/04/02 02:20:06;;;;;;;;;10.67;10.00;;;;;26.78;33.43;100005.67;244617;1185;86815;-75
2024/04/02 02:25:11;;;;;;;;;11.25;10.50;;;;;26.78;33.59;99993.27;244763;1186;88801;-74
2024/04/02 02:30:16;;;;;;;;;11.00;11.00;;;;;26.77;33.55;99975.66;244929;1185;87727;-75
2024/04/02 02:35:20;;;;;;;;;11.50;11.25;;;;;26.77;33.57;99978.79;244759;1186;87760;-75
2024/04/02 02:40:24;;;;;;;;;19.75;15.00;;;;;26.76;33.58;99987.85;244771;1186;88106;-75
2024/04/02 02:45:29;;;;;;;;;11.75;9.75;;;;;26.76;33.47;99979.52;244752;1185;88244;-75
2024/04/02 02:50:33;;;;;;;;;13.50;11.00;;;;;26.76;33.43;99971.51;244787;1179;88097;-72
2024/04/02 02:55:38;;;;;;;;;15.50;13.50;;;;;26.74;33.63;99968.19;244761;1182;88807;-74
2024/04/02 03:00:42;;;;;;;;;19.00;16.00;;;;;26.65;33.56;99957.27;244755;1185;88341;-74
2024/04/02 03:05:54;;;;;;;;;12.33;12.33;;;;;26.57;33.66;99952.03;244958;1186;87510;-74
2024/04/02 03:11:04;;;;;;;;;17.75;12.00;;;;;26.50;33.52;99934.48;244937;1183;88727;-74
2024/04/02 03:16:09;;;;;;;;;17.33;11.33;;;;;26.46;33.51;99929.21;245041;1183;88034;-73
2024/04/02 03:21:13;;;;;;;;;19.00;15.75;;;;;26.43;33.43;99922.17;244971;1179;88568;-73
2024/04/02 03:26:19;;;;;;;;;19.00;16.00;;;;;26.36;33.41;99921.98;242789;1179;88666;-74
2024/04/02 03:31:23;;;;;;;;;17.67;14.33;;;;;26.21;33.71;99925.26;243501;1179;87997;-73
2024/04/02 03:36:27;;;;;;;;;24.75;21.00;;;;;26.18;33.61;99907.67;245314;1183;88671;-74
2024/04/02 03:41:32;;;;;;;;;18.00;14.33;;;;;26.24;33.54;99904.48;245320;1183;89247;-74
2024/04/02 03:46:36;;;;;;;;;19.33;14.33;;;;;26.30;33.23;99904.73;244979;1183;88364;-76
2024/04/02 03:51:40;;;;;;;;;16.25;13.75;;;;;26.28;33.06;99905.49;245305;1183;88352;-73
2024/04/02 03:56:43;;;;;;;;;15.50;15.50;;;;;26.27;32.86;99900.67;244991;1186;88341;-74
2024/04/02 04:01:51;;;;;;;;;13.75;12.25;;;;;26.24;32.67;99902.12;245302;1183;88089;-74
2024/04/02 04:07:01;;;;;;;;;19.00;14.50;;;;;26.23;32.59;99903.88;244991;1183;89261;-74
2024/04/02 04:12:06;;;;;;;;;22.67;20.67;;;;;26.23;32.62;99894.12;245306;1183;87580;-74
2024/04/02 04:17:10;;;;;;;;;17.00;13.67;;;;;26.24;32.55;99888.20;245258;1183;88540;-74
2024/04/02 04:22:15;;;;;;;;;22.25;17.75;;;;;26.27;32.43;99883.51;245257;1183;87390;-74
2024/04/02 04:27:19;;;;;;;;;18.25;12.75;;;;;26.25;32.36;99872.74;244962;1183;87362;-73
2024/04/02 04:32:24;;;;;;;;;18.50;15.50;;;;;26.22;32.46;99852.56;244714;1186;88799;-73
2024/04/02 04:37:33;;;;;;;;;22.75;17.00;;;;;26.25;32.29;99857.57;244656;1183;88485;-73
2024/04/02 04:42:37;;;;;;;;;21.33;18.00;;;;;26.30;32.26;99860.99;244713;1179;87551;-72
2024/04/02 04:47:41;;;;;;;;;23.33;16.00;;;;;26.36;32.92;99840.67;244878;1183;88136;-72
2024/04/02 04:52:47;;;;;;;;;18.33;13.67;;;;;26.48;32.93;99822.16;244713;1180;87770;-71
2024/04/02 04:57:52;;;;;;;;;15.00;13.00;;;;;26.68;33.69;99801.93;244865;1183;89142;-79
2024/04/02 05:02:56;;;;;;;;;21.67;16.67;;;;;26.94;34.41;99805.55;243933;1179;87145;-75
2024/04/02 05:08:34;;;;;;;;;29.00;15.75;;;;;27.19;34.30;99802.04;244342;1183;89060;-72
2024/04/02 05:13:40;;;;;;;;;24.25;17.25;;;;;27.40;34.73;99803.64;244719;1179;88365;-71
2024/04/02 05:18:43;;;;;;;;;14.00;13.50;;;;;27.59;34.99;99814.05;244879;1179;88753;-70
2024/04/02 05:23:47;;;;;;;;;13.67;13.33;;;;;27.70;34.95;99828.95;244922;1180;88859;-69
2024/04/02 05:28:50;;;;;;;;;16.75;16.00;;;;;27.78;34.51;99850.39;244704;1179;89212;-70
2024/04/02 05:33:56;;;;;;;;;21.75;16.50;;;;;27.86;34.54;99855.59;244610;1179;87349;-69
2024/04/02 05:39:03;;;;;;;;;14.67;13.33;;;;;27.94;34.05;99850.96;244903;1186;88607;-69
2024/04/02 05:44:06;;;;;;;;;25.00;19.50;;;;;28.01;33.94;99859.59;244657;1180;87440;-72
2024/04/02 05:49:11;;;;;;;;;19.00;16.00;;;;;28.12;33.96;99865.27;244537;1180;88936;-69
2024/04/02 05:54:15;;;;;;;;;18.50;16.25;;;;;28.16;33.57;99866.73;244396;1181;88575;-68
2024/04/02 05:59:18;;;;;;;;;23.25;15.50;;;;;27.99;31.67;99859.64;244791;1183;89124;-67
2024/04/02 06:04:22;;;;;;;;;18.00;15.67;;;;;27.77;32.10;99850.17;244679;1184;88734;-69
2024/04/02 06:09:38;;;;;;;;;16.67;15.67;;;;;27.81;34.30;99845.77;242388;1180;88858;-74
2024/04/02 06:14:44;;;;;;;;;26.00;20.00;;;;;27.89;34.14;99833.00;244508;1183;88998;-73
2024/04/02 06:19:48;;;;;;;;;22.25;14.75;;;;;27.94;34.49;99821.17;244694;1183;88547;-72
2024/04/02 06:24:55;;;;;;;;;35.00;21.00;;;;;28.09;34.81;99817.61;241661;1180;88143;-70
2024/04/02 06:29:59;;;;;;;;;19.67;13.67;;;;;28.23;35.29;99809.76;244655;1181;87244;-72
2024/04/02 06:35:03;;;;;;;;;21.50;18.00;;;;;28.29;34.87;99802.85;244552;1180;88659;-71
2024/04/02 06:40:13;;;;;;;;;20.75;15.75;;;;;28.38;34.71;99792.43;244705;1179;89339;-70
2024/04/02 06:45:16;;;;;;;;;20.50;16.00;;;;;28.44;34.73;99786.20;244609;1185;88162;-70
2024/04/02 06:50:20;;;;;;;;;20.50;16.50;;;;;28.50;34.46;99796.52;244488;1186;88031;-71
2024/04/02 06:55:29;;;;;;;;;16.25;14.25;;;;;28.58;34.06;99797.95;244653;1184;88683;-67
2024/04/02 07:00:34;;;;;;;;;20.67;14.33;;;;;28.38;31.74;99782.44;244674;1179;88391;-68
2024/04/02 07:05:40;;;;;;;;;23.00;16.00;;;;;28.10;32.91;99774.55;244510;1180;88576;-71
2024/04/02 07:10:59;;;;;;;;;20.00;14.75;;;;;28.18;35.03;99779.70;244401;1186;88010;-74
2024/04/02 07:16:03;;;;;;;;;23.00;15.25;;;;;28.18;33.91;99795.98;244671;1185;88433;-74
2024/04/02 07:21:08;;;;;;;;;21.00;18.25;;;;;28.06;33.05;99778.52;245007;1184;87929;-73
2024/04/02 07:26:13;;;;;;;;;19.00;16.00;;;;;27.99;32.93;99778.27;244960;1183;88072;-76
2024/04/02 07:31:17;;;;;;;;;17.75;17.00;;;;;28.01;32.30;99773.15;244642;1180;87660;-75
2024/04/02 07:36:22;;;;;;;;;20.00;17.00;;;;;28.04;32.02;99740.98;244608;1183;89079;-75
2024/04/02 07:41:26;;;;;;;;;21.75;17.75;;;;;27.99;31.92;99719.40;244995;1183;88626;-72
2024/04/02 07:46:33;;;;;;;;;16.00;12.67;;;;;28.08;32.61;99727.48;244988;1183;88855;-71
2024/04/02 07:51:36;;;;;;;;;18.50;16.00;;;;;28.28;33.10;99724.27;244806;1186;88560;-69
2024/04/02 07:56:40;;;;;;;;;22.75;15.75;;;;;28.48;33.16;99727.92;244638;1180;88517;-71
2024/04/02 08:01:44;;;;;;;;;24.50;16.00;;;;;28.32;32.16;99719.70;244763;1180;88716;-67
2024/04/02 08:06:48;;;;;;;;;21.00;18.25;;;;;28.06;31.65;99726.36;244560;1183;88240;-68
2024/04/02 08:11:53;;;;;;;;;22.25;16.75;;;;;27.93;31.79;99737.77;244704;1180;87832;-67
2024/04/02 08:16:56;;;;;;;;;20.75;16.50;;;;;27.88;32.05;99745.05;244702;1183;87476;-67
2024/04/02 08:21:59;;;;;;;;;17.33;17.00;;;;;27.83;31.96;99750.55;244520;1180;59242;-67
2024/04/02 08:27:03;;;;;;;;;20.75;15.00;;;;;27.82;31.54;99743.05;244711;1180;89727;-67
2024/04/02 08:32:07;;;;;;;;;22.67;20.00;;;;;27.80;31.77;99725.70;244633;1180;88696;-67
2024/04/02 08:37:10;;;;;;;;;22.25;17.00;;;;;27.80;31.42;99710.58;244605;1180;89012;-67
2024/04/02 08:42:13;;;;;;;;;22.00;19.00;;;;;27.83;30.84;99714.30;244495;1183;59549;-67
2024/04/02 08:47:26;;;;;;;;;17.00;13.33;;;;;27.87;30.53;99718.20;244566;1183;87926;-67
2024/04/02 08:52:30;;;;;;;;;21.67;16.33;;;;;27.89;28.96;99731.09;244392;1183;88431;-66
2024/04/02 08:57:34;;;;;;;;;23.50;18.25;;;;;27.94;28.44;99729.27;244372;1180;88977;-68
2024/04/02 09:02:39;;;;;;;;;21.25;16.25;;;;;28.01;27.53;99716.26;242461;1180;88801;-70
2024/04/02 09:07:43;;;;;;;;;21.00;18.33;;;;;28.08;26.70;99712.05;244326;1180;88509;-69
2024/04/02 09:12:47;;;;;;;;;38.00;27.25;;;;;28.14;26.33;99699.43;244773;1180;88697;-69
2024/04/02 09:17:50;;;;;;;;;21.67;16.00;;;;;28.17;26.31;99693.35;244534;1183;88843;-70
2024/04/02 09:22:54;;;;;;;;;22.33;19.00;;;;;28.20;25.97;99699.02;244592;1180;88007;-70
2024/04/02 09:27:57;;;;;;;;;22.33;16.67;;;;;28.26;26.03;99700.41;244919;1179;89087;-70
2024/04/02 09:33:03;;;;;;;;;33.00;17.33;;;;;28.35;25.90;99696.52;244583;1180;88248;-70
2024/04/02 09:38:07;;;;;;;;;31.00;20.50;;;;;28.40;25.81;99685.29;244767;1183;88073;-70
2024/04/02 09:43:13;;;;;;;;;31.00;20.75;;;;;28.39;25.71;99684.53;244675;1180;88761;-70
2024/04/02 09:48:17;;;;;;;;;33.50;24.00;;;;;28.33;25.79;99670.45;244579;1183;88957;-70
2024/04/02 09:53:21;;;;;;;;;23.00;19.00;;;;;28.28;26.14;99678.01;244525;1183;88574;-69
2024/04/02 09:58:26;;;;;;;;;24.75;20.50;;;;;28.27;26.03;99683.08;244501;1182;88378;-70
2024/04/02 10:03:31;;;;;;;;;22.25;20.25;;;;;28.26;25.90;99674.88;244557;1180;88384;-71
2024/04/02 10:08:36;;;;;;;;;29.00;21.00;;;;;28.31;26.08;99675.96;244508;1185;89200;-70
2024/04/02 10:13:39;;;;;;;;;34.50;26.25;;;;;28.39;26.10;99669.29;244576;1183;87264;-71
2024/04/02 10:18:46;;;;;;;;;29.50;19.25;;;;;28.52;25.73;99667.87;244435;1180;87719;-71
2024/04/02 10:23:53;;;;;;;;;25.50;20.50;;;;;28.72;25.38;99668.27;244710;1192;88073;-71
2024/04/02 10:28:56;;;;;;;;;28.75;19.75;;;;;28.92;24.62;99680.73;244640;1185;88838;-70
2024/04/02 10:33:59;;;;;;;;;25.00;21.00;;;;;29.09;23.51;99676.68;244722;1185;88669;-71
2024/04/02 10:39:06;;;;;;;;;17.00;14.67;;;;;29.24;22.90;99671.14;244639;1183;88294;-70
2024/04/02 10:44:09;;;;;;;;;24.50;15.25;;;;;29.36;22.56;99675.80;244667;1186;87632;-69
2024/04/02 10:49:12;;;;;;;;;21.33;14.00;;;;;29.44;22.31;99685.69;244966;1183;59336;-70
2024/04/02 10:54:16;;;;;;;;;29.00;17.75;;;;;29.44;21.89;99689.94;244939;1183;87751;-70
2024/04/02 10:59:20;;;;;;;;;20.67;14.33;;;;;29.42;21.68;99682.41;244559;1184;88902;-68
2024/04/02 11:04:24;;;;;;;;;19.67;14.00;;;;;29.40;21.71;99673.79;244963;1183;59263;-71
2024/04/02 11:09:26;;;;;;;;;16.50;14.00;;;;;29.39;21.38;99689.09;244726;1186;88678;-70
2024/04/02 11:14:30;;;;;;;;;15.00;13.00;;;;;29.18;21.37;99710.69;245167;1183;59240;-70
2024/04/02 11:19:35;;;;;;;;;19.67;13.33;;;;;29.11;21.67;99718.90;244868;1183;88208;-71
2024/04/02 11:30:00;;;;;;;;;16.00;11.33;;;;;29.37;21.81;99726.26;244795;1183;88089;-71
2024/04/02 11:35:24;;;;;;;;;17.75;16.50;;;;;29.41;21.76;99739.93;244744;1179;88667;-72
2024/04/02 11:40:28;;;;;;;;;16.67;12.67;;;;;29.47;21.67;99728.64;245168;1180;88496;-72
2024/04/02 11:45:31;;;;;;;;;19.00;15.50;;;;;29.64;21.32;99713.11;244816;1183;88304;-71
2024/04/02 11:50:34;;;;;;;;;11.33;10.33;;;;;29.72;21.23;99700.29;245136;1183;59357;-72
2024/04/02 11:55:43;;;;;;;;;18.00;12.25;;;;;29.62;21.05;99692.80;244918;1183;88979;-72
2024/04/02 12:00:47;;;;;;;;;15.33;9.33;;;;;29.44;20.79;99693.95;244939;1192;88126;-72
2024/04/02 12:05:50;;;;;;;;;15.75;13.50;;;;;29.29;20.49;99677.08;244948;1183;88670;-71
2024/04/02 12:10:55;;;;;;;;;15.67;12.33;;;;;29.18;21.08;99683.70;244958;1183;88719;-68
2024/04/02 12:15:59;;;;;;;;;11.50;9.75;;;;;29.24;21.07;99668.27;245263;1192;88803;-68
2024/04/02 12:21:02;;;;;;;;;25.00;12.00;;;;;29.20;20.65;99651.78;244956;1180;59254;-69
2024/04/02 12:26:05;;;;;;;;;10.50;9.25;;;;;29.52;20.12;99643.40;244739;1183;88534;-69
2024/04/02 12:31:10;;;;;;;;;11.25;8.25;;;;;29.69;19.46;99641.89;244710;1180;88495;-69
2024/04/02 12:36:13;;;;;;;;;8.50;7.75;;;;;29.57;19.07;99631.95;244931;1179;88220;-69
2024/04/02 12:41:16;;;;;;;;;10.00;8.75;;;;;29.51;18.75;99621.91;244685;1186;87571;-69
2024/04/02 12:46:19;;;;;;;;;8.00;7.00;;;;;29.61;18.43;99627.16;244885;1183;59295;-69
2024/04/02 12:51:22;;;;;;;;;15.00;9.67;;;;;29.53;17.99;99623.34;244909;1186;59344;-69
2024/04/02 12:56:26;;;;;;;;;13.50;8.50;;;;;29.44;17.75;99609.11;244673;1185;88263;-68
2024/04/02 13:01:30;;;;;;;;;14.50;7.25;;;;;29.41;17.49;99606.77;244959;1183;88107;-69
2024/04/02 13:06:34;;;;;;;;;14.33;8.33;;;;;29.51;17.14;99615.59;244966;1181;88244;-68
2024/04/02 13:11:42;;;;;;;;;15.33;10.00;;;;;29.66;16.62;99631.29;245001;1183;88679;-68
2024/04/02 13:16:45;;;;;;;;;13.00;11.25;;;;;29.77;16.66;99606.17;244956;1182;87752;-69
2024/04/02 13:21:48;;;;;;;;;11.00;8.50;;;;;29.79;16.10;99603.99;244970;1183;88207;-69
2024/04/02 13:26:51;;;;;;;;;7.50;6.50;;;;;29.74;16.08;99620.84;245313;1179;59195;-72
2024/04/02 13:31:55;;;;;;;;;13.50;7.75;;;;;29.78;15.69;99629.94;244935;1183;88506;-71
2024/04/02 13:37:01;;;;;;;;;15.00;9.00;;;;;29.82;15.83;99655.45;244945;1179;88973;-72
2024/04/02 13:42:04;;;;;;;;;11.50;9.00;;;;;29.86;15.69;99674.04;245009;1180;88168;-72
2024/04/02 13:47:09;;;;;;;;;13.33;9.67;;;;;29.89;15.78;99676.88;244898;1192;88007;-72
2024/04/02 13:52:13;;;;;;;;;10.75;8.75;;;;;29.91;15.88;99692.28;244910;1180;88891;-72
2024/04/02 13:57:16;;;;;;;;;15.00;7.25;;;;;29.91;15.76;99706.90;245129;1180;88791;-72
2024/04/02 14:02:20;;;;;;;;;17.50;9.50;;;;;29.89;15.76;99705.36;244990;1183;88271;-71
2024/04/02 14:07:25;;;;;;;;;11.00;10.00;;;;;29.88;15.94;99715.96;245293;1180;59247;-71
2024/04/02 14:12:29;;;;;;;;;8.67;8.33;;;;;29.88;16.06;99723.64;244990;1180;88733;-72
2024/04/02 14:17:32;;;;;;;;;9.25;9.25;;;;;29.85;16.38;99720.63;244974;1183;89018;-72
2024/04/02 14:22:36;;;;;;;;;8.75;7.00;;;;;29.84;16.17;99714.15;244976;1180;88245;-72
2024/04/02 14:27:42;;;;;;;;;9.00;6.50;;;;;29.99;16.22;99724.92;244976;1183;88729;-72
2024/04/02 14:32:46;;;;;;;;;9.50;7.00;;;;;30.12;16.18;99720.98;244963;1192;89027;-71
2024/04/02 14:37:50;;;;;;;;;15.25;8.75;;;;;30.10;16.19;99727.67;244961;1183;89131;-71
2024/04/02 14:42:53;;;;;;;;;10.67;7.67;;;;;29.92;16.30;99728.10;244970;1183;59328;-68
2024/04/02 14:47:57;;;;;;;;;8.50;7.75;;;;;29.73;16.61;99728.66;245246;1183;88799;-68
2024/04/02 14:53:00;;;;;;;;;9.25;7.75;;;;;29.59;17.22;99742.60;244941;1180;90039;-69
2024/04/02 14:58:04;;;;;;;;;8.25;8.25;;;;;29.49;17.24;99758.86;245213;1192;88154;-68
2024/04/02 15:03:07;;;;;;;;;9.00;8.00;;;;;29.40;17.41;99768.21;245295;1180;59256;-69
2024/04/02 15:08:13;;;;;;;;;7.00;6.67;;;;;29.28;17.57;99780.11;245003;1180;59242;-69
2024/04/02 15:13:16;;;;;;;;;7.75;7.00;;;;;29.17;18.00;99796.62;244956;1179;88779;-69
2024/04/02 15:18:19;;;;;;;;;10.25;9.25;;;;;29.02;18.11;99805.92;244952;1184;59213;-69
2024/04/02 15:23:22;;;;;;;;;7.00;7.00;;;;;28.90;18.28;99816.00;244934;1180;59232;-69
2024/04/02 15:28:25;;;;;;;;;8.33;8.00;;;;;28.79;18.70;99841.88;244932;1186;59238;-69
2024/04/02 15:33:29;;;;;;;;;8.75;7.25;;;;;28.69;18.96;99844.90;241018;1184;87977;-67
2024/04/02 15:38:32;;;;;;;;;8.33;6.33;;;;;28.63;19.09;99848.13;244906;1183;59281;-67
2024/04/02 15:43:36;;;;;;;;;7.00;6.00;;;;;28.53;19.43;99862.20;245306;1183;88740;-66
2024/04/02 15:48:40;;;;;;;;;6.50;6.00;;;;;28.43;19.68;99874.94;244903;1180;87844;-66
2024/04/02 15:53:47;;;;;;;;;5.00;5.00;;;;;28.36;19.66;99885.90;244946;1183;59296;-66
2024/04/02 15:58:50;;;;;;;;;7.00;6.25;;;;;28.27;19.94;99891.46;244948;1180;87415;-66
2024/04/02 16:03:54;;;;;;;;;9.50;6.25;;;;;28.21;20.00;99898.85;245266;1180;88116;-66
2024/04/02 16:09:39;;;;;;;;;8.00;6.00;;;;;28.15;20.20;99910.52;243821;1180;88057;-66
2024/04/02 16:15:14;;;;;;;;;6.33;6.33;;;;;28.11;20.27;99915.91;243237;1183;88807;-67
2024/04/02 16:20:36;;;;;;;;;6.00;6.00;;;;;28.07;20.37;99920.64;243074;1181;87466;-66
2024/04/02 16:26:11;;;;;;;;;5.00;4.50;;;;;28.00;20.52;99930.39;242750;1183;88740;-63
2024/04/02 16:31:16;;;;;;;;;6.00;6.00;;;;;27.95;20.45;99935.95;242955;1184;88418;-66
2024/04/02 16:36:19;;;;;;;;;5.50;5.50;;;;;27.90;20.62;99937.44;242631;1183;59313;-71
2024/04/02 16:41:23;;;;;;;;;8.25;6.25;;;;;27.85;20.59;99950.08;242600;1183;88995;-63
2024/04/02 16:46:59;;;;;;;;;6.00;6.00;;;;;27.82;20.57;99977.05;241902;1183;89127;-69
2024/04/02 16:52:02;;;;;;;;;7.00;6.00;;;;;27.78;20.51;99991.19;241126;1183;88590;-66
2024/04/02 16:57:37;;;;;;;;;5.00;5.00;;;;;27.75;20.50;100000.97;242675;1183;88231;-66
2024/04/02 17:03:14;;;;;;;;;7.00;7.00;;;;;27.72;20.43;100016.66;242019;1181;88211;-66
2024/04/02 17:08:49;;;;;;;;;6.00;6.00;;;;;27.69;20.35;100019.00;241258;1192;88135;-66
2024/04/02 17:14:01;;;;;;;;;6.00;6.00;;;;;27.67;20.66;100022.51;240707;1184;87251;-63
2024/04/02 17:19:26;;;;;;;;;4.00;4.00;;;;;27.64;20.45;100027.06;242023;1183;88682;-66
2024/04/02 17:25:06;;;;;;;;;5.00;5.00;;;;;27.60;20.62;100037.39;242142;1179;87281;-63
2024/04/02 17:30:21;;;;;;;;;6.00;6.00;;;;;27.58;20.64;100050.88;241200;1184;89024;-67
2024/04/02 17:35:59;;;;;;;;;6.00;6.00;;;;;27.54;20.59;100054.19;243335;1183;88697;-66
2024/04/02 17:41:03;;;;;;;;;5.00;5.00;;;;;27.50;20.51;100065.15;240879;1183;88330;-67
2024/04/02 17:46:40;;;;;;;;;8.00;6.00;;;;;27.47;20.44;100077.33;241884;1183;88116;-63
2024/04/02 17:51:58;;;;;;;;;6.00;6.00;;;;;27.44;20.55;100100.68;241627;1183;87960;-66
2024/04/02 17:57:17;;;;;;;;;5.67;5.67;;;;;27.41;20.47;100107.42;241571;1179;88727;-63
2024/04/02 18:02:44;;;;;;;;;;;;;;;27.39;20.40;100121.80;242479;1190;87313;-72
2024/04/02 18:08:17;;;;;;;;;5.00;5.00;;;;;27.37;20.52;100126.68;242494;1183;87890;-66
2024/04/02 18:13:48;;;;;;;;;5.00;5.00;;;;;27.34;20.55;100135.85;241986;1186;88583;-63
2024/04/02 18:19:30;;;;;;;;;5.00;5.00;;;;;27.35;20.73;100151.11;240743;1184;88981;-69
2024/04/02 18:24:34;;;;;;;;;5.00;5.00;;;;;27.33;20.93;100161.36;241653;1184;88832;-67
2024/04/02 18:29:53;;;;;;;;;5.50;5.50;;;;;27.29;20.74;100173.77;243067;1180;59430;-66
2024/04/02 18:35:32;;;;;;;;;6.00;6.00;;;;;27.26;20.89;100169.95;242712;1191;87935;-66
2024/04/02 18:40:43;;;;;;;;;5.00;5.00;;;;;27.24;21.06;100178.24;241053;1192;89234;-69
2024/04/02 18:46:23;;;;;;;;;5.00;5.00;;;;;27.24;20.78;100198.11;242099;1180;89000;-71
2024/04/02 18:51:28;;;;;;;;;5.00;5.00;;;;;27.22;20.95;100221.60;240842;1183;88045;-66
2024/04/02 18:57:04;;;;;;;;;5.00;4.00;;;;;27.22;21.14;100228.68;242828;1183;88685;-66
2024/04/02 19:02:18;;;;;;;;;5.00;5.00;;;;;27.21;21.21;100236.86;240586;1182;88081;-63
2024/04/02 19:07:54;;;;;;;;;6.00;5.00;;;;;27.21;21.28;100255.14;242519;1183;89307;-63
2024/04/02 19:13:03;;;;;;;;;6.00;6.00;;;;;27.19;21.35;100267.20;241446;1185;88180;-63
2024/04/02 19:18:27;;;;;;;;;6.00;6.00;;;;;27.20;21.44;100268.91;240177;1180;90337;-68
2024/04/02 19:24:02;;;;;;;;;4.00;4.00;;;;;27.19;21.33;100267.64;241954;1180;87860;-66
2024/04/02 19:29:17;;;;;;;;;7.00;5.00;;;;;27.16;21.36;100265.10;242355;1180;88789;-66
2024/04/02 19:34:20;;;;;;;;;5.00;4.33;;;;;27.14;21.61;100260.20;240882;1184;88637;-68
2024/04/02 19:39:47;;;;;;;;;7.00;5.00;;;;;27.13;21.67;100266.39;241996;1183;87720;-71
2024/04/02 19:45:22;;;;;;;;;5.50;5.50;;;;;27.12;21.54;100269.34;241969;1183;87921;-71
2024/04/02 19:50:57;;;;;;;;;5.00;5.00;;;;;27.10;21.82;100273.13;242366;1187;88990;-66
2024/04/02 19:56:22;;;;;;;;;7.00;7.00;;;;;27.10;21.76;100282.67;241760;1183;87381;-66
2024/04/02 20:01:43;;;;;;;;;5.00;5.00;;;;;27.09;21.88;100301.83;242156;1179;89172;-68
2024/04/02 20:07:19;;;;;;;;;6.00;6.00;;;;;27.10;22.02;100324.45;242260;1183;88718;-69
2024/04/02 20:12:30;;;;;;;;;7.00;6.00;;;;;27.12;22.08;100352.68;241526;1183;88248;-69
2024/04/02 20:17:41;;;;;;;;;5.00;5.00;;;;;27.12;22.05;100371.09;242964;1183;89081;-66
2024/04/02 20:22:44;;;;;;;;;5.50;5.50;;;;;27.11;22.21;100373.98;242238;1183;88858;-67
2024/04/02 20:27:47;;;;;;;;;6.00;4.50;;;;;27.11;22.25;100368.98;241099;1186;59504;-66
2024/04/02 20:33:12;;;;;;;;;5.00;5.00;;;;;27.10;22.25;100370.75;242744;1185;88237;-69
2024/04/02 20:38:47;;;;;;;;;6.50;5.00;;;;;27.08;22.33;100381.80;241706;1186;86901;-69
2024/04/02 20:44:09;;;;;;;;;6.00;6.00;;;;;27.07;22.53;100387.81;241276;1180;87347;-69
2024/04/02 20:49:22;;;;;;;;;4.33;4.33;;;;;27.06;22.53;100383.19;241975;1180;89057;-63
2024/04/02 20:54:49;;;;;;;;;5.00;5.00;;;;;27.06;22.55;100385.16;242719;1183;88350;-69
2024/04/02 20:59:52;;;;;;;;;6.00;6.00;;;;;27.06;22.73;100404.04;244959;1179;88588;-66
2024/04/02 21:04:58;;;;;;;;;5.00;5.00;;;;;27.04;22.72;100426.64;242025;1183;89265;-64
2024/04/02 21:10:02;;;;;;;;;5.00;5.00;;;;;27.05;22.75;100442.23;241638;1183;88940;-64
2024/04/02 21:15:07;;;;;;;;;4.00;4.00;;;;;27.04;22.85;100431.73;243584;1183;87893;-64
2024/04/02 21:20:11;;;;;;;;;5.33;4.00;;;;;27.02;22.68;100446.05;242148;1183;89150;-64
2024/04/02 21:25:13;;;;;;;;;4.75;4.75;;;;;27.02;22.99;100452.91;241684;1183;59634;-64
2024/04/02 21:30:17;;;;;;;;;5.00;5.00;;;;;27.00;22.88;100451.86;242322;1192;59648;-64
2024/04/02 21:35:22;;;;;;;;;4.67;4.67;;;;;26.99;22.85;100444.54;241429;1186;88755;-66
2024/04/02 21:40:25;;;;;;;;;4.67;4.67;;;;;26.98;22.77;100461.16;241913;1192;88809;-69
2024/04/02 21:45:29;;;;;;;;;6.25;5.00;;;;;26.97;22.84;100463.67;241364;1183;88872;-69
2024/04/02 21:50:32;;;;;;;;;4.67;4.67;;;;;26.96;22.90;100469.48;242814;1191;59217;-64
2024/04/02 21:55:36;;;;;;;;;5.00;5.00;;;;;26.94;23.06;100481.52;241557;1180;89090;-64
2024/04/02 22:00:43;;;;;;;;;4.00;4.00;;;;;26.94;22.86;100493.73;240649;1186;59564;-63
2024/04/02 22:05:46;;;;;;;;;5.00;5.00;;;;;26.95;23.22;100483.70;241211;1183;87532;-67
2024/04/02 22:10:55;;;;;;;;;6.00;4.00;;;;;26.94;23.24;100489.83;240727;1180;87784;-64
2024/04/02 22:16:00;;;;;;;;;5.25;5.25;;;;;26.95;23.19;100496.16;240554;1183;87834;-69
2024/04/02 22:21:07;;;;;;;;;6.50;4.50;;;;;26.94;23.16;100492.73;242210;1183;88073;-63
2024/04/02 22:26:16;;;;;;;;;4.50;4.50;;;;;26.94;23.17;100496.52;242051;1185;87459;-66
2024/04/02 22:31:38;;;;;;;;;6.00;4.00;;;;;26.93;23.04;100499.52;242815;1193;88607;-68
2024/04/02 22:37:04;;;;;;;;;4.00;4.00;;;;;26.93;23.13;100511.88;242835;1185;88252;-63
2024/04/02 22:42:40;;;;;;;;;5.00;5.00;;;;;26.93;23.37;100524.77;242939;1186;88232;-71
2024/04/02 22:47:53;;;;;;;;;5.00;5.00;;;;;26.92;23.33;100522.29;242194;1186;88487;-68
2024/04/02 22:53:21;;;;;;;;;4.00;4.00;;;;;26.92;23.47;100515.91;243247;1179;87934;-72
2024/04/02 22:58:27;;;;;;;;;5.00;5.00;;;;;26.90;23.49;100532.80;241591;1180;87767;-72
2024/04/02 23:03:31;;;;;;;;;4.00;4.00;;;;;26.91;23.43;100551.10;242292;1186;87998;-65
2024/04/02 23:09:07;;;;;;;;;5.00;5.00;;;;;26.91;23.59;100551.33;242508;1186;59236;-65
2024/04/02 23:14:18;;;;;;;;;5.00;5.00;;;;;26.91;23.49;100560.91;242009;1184;87833;-66
2024/04/02 23:19:55;;;;;;;;;4.50;4.50;;;;;26.91;23.75;100562.84;242153;1183;88210;-69
2024/04/02 23:25:10;;;;;;;;;6.00;4.00;;;;;26.91;23.60;100577.00;242721;1183;87484;-69
2024/04/02 23:30:46;;;;;;;;;4.00;4.00;;;;;26.90;23.94;100586.77;242580;1185;87606;-66
2024/04/02 23:36:09;;;;;;;;;5.00;5.00;;;;;26.89;23.78;100597.28;241853;1186;88487;-67
2024/04/02 23:41:45;;;;;;;;;;;;;;;26.88;23.78;100590.73;242073;1186;88931;-66